Time;durP1;ratioP1;P1;durP2;ratioP2;P2;SDS_P1;SDS_P2;PMS_P1;PMS_P2;Temp;Humidity;BMP_temperature;BMP_pressure;BME280_temperature;BME280_humidity;BME280_pressure;Samples;Min_cycle;Max_cycle;Signal;HPM_P1;HPM_P2
2022/04/05 00:00:20;;;;;;;6.37;4.67;;;11.40;45.40;;;-142.21;55.69;112049.66;5041967;28;20541;-73
2022/04/05 00:02:47;;;;;;;6.10;5.07;;;11.40;45.40;;;-142.21;56.52;112049.66;5043212;28;20554;-73
2022/04/05 00:05:16;;;;;;;7.00;4.50;;;11.40;45.40;;;-142.21;56.15;112049.66;5056796;28;20534;-73
2022/04/05 00:07:43;;;;;;;5.70;4.47;;;11.40;45.30;;;-142.21;55.92;112049.66;5048667;28;20471;-73
2022/04/05 00:10:10;;;;;;;5.60;4.60;;;11.40;45.50;;;-142.21;57.00;112049.66;5056107;28;20448;-73
2022/04/05 00:12:37;;;;;;;4.83;4.30;;;11.40;45.60;;;-142.21;57.02;112049.66;5056075;28;20475;-73
2022/04/05 00:15:06;;;;;;;5.30;4.53;;;11.50;45.60;;;-142.21;56.68;112049.66;5052949;28;20960;-73
2022/04/05 00:17:33;;;;;;;4.73;4.30;;;11.50;45.50;;;-142.21;57.21;112049.66;5052026;28;20455;-73
2022/04/05 00:20:00;;;;;;;4.83;4.30;;;11.40;45.60;;;-142.21;58.44;112049.66;5053732;28;20460;-73
2022/04/05 00:22:29;;;;;;;5.10;4.60;;;11.30;45.90;;;-142.21;57.80;112049.66;5053442;28;20968;-73
2022/04/05 00:24:56;;;;;;;6.33;4.53;;;11.30;45.90;;;-142.21;58.10;112049.66;5045281;28;20543;-73
2022/04/05 00:27:23;;;;;;;5.20;4.70;;;11.40;46.00;;;-142.21;58.83;112049.66;5052472;28;20443;-73
2022/04/05 00:29:50;;;;;;;6.20;4.80;;;11.30;46.00;;;-142.21;59.28;112049.66;5053022;28;20454;-73
2022/04/05 00:32:17;;;;;;;5.17;4.63;;;11.30;46.30;;;-142.21;59.18;112049.66;5052423;28;20440;-73
2022/04/05 00:34:44;;;;;;;6.03;4.80;;;11.30;46.30;;;-142.21;58.53;112049.66;5069249;28;20469;-73
2022/04/05 00:37:11;;;;;;;8.27;4.40;;;11.30;46.80;;;-142.21;57.87;112049.66;5054934;28;20444;-73
2022/04/05 00:39:39;;;;;;;5.27;4.60;;;11.30;46.20;;;-142.21;58.16;112049.66;5052343;28;20940;-73
2022/04/05 00:42:09;;;;;;;5.30;4.57;;;11.20;46.30;;;-142.21;58.14;112049.66;5051781;28;20492;-74
2022/04/05 00:44:37;;;;;;;6.13;4.60;;;11.20;46.20;;;-142.21;58.12;112049.66;5052703;28;20471;-73
2022/04/05 00:47:17;;;;;;;5.97;5.03;;;11.20;46.20;;;-142.21;57.36;112049.66;5051183;28;20476;-73
2022/04/05 00:49:45;;;;;;;6.43;4.73;;;11.20;46.20;;;-142.21;57.36;112049.66;5059588;28;20440;-73
2022/04/05 00:52:15;;;;;;;5.33;4.67;;;11.20;46.10;;;-142.21;56.72;112049.66;5051652;28;20444;-73
2022/04/05 00:54:47;;;;;;;6.23;4.90;;;11.20;45.80;;;-142.21;56.25;112049.66;5053463;28;20951;-73
2022/04/05 00:57:17;;;;;;;5.13;4.63;;;11.20;45.80;;;-142.21;56.41;112049.66;5057211;28;20436;-73
2022/04/05 00:59:47;;;;;;;6.93;4.80;;;11.10;45.90;;;-142.21;56.83;112049.66;5072489;28;20443;-73
2022/04/05 01:02:18;;;;;;;5.67;4.90;;;11.20;45.90;;;-142.21;56.04;112049.66;5065617;28;20479;-73
2022/04/05 01:04:48;;;;;;;5.47;4.67;;;11.20;45.80;;;-142.21;55.70;112049.66;5054125;28;20442;-73
2022/04/05 01:07:17;;;;;;;5.40;4.30;;;11.20;45.60;;;-142.21;56.36;112049.66;5062393;28;20447;-73
2022/04/05 01:09:46;;;;;;;5.67;4.50;;;11.20;45.80;;;-142.21;55.81;112049.66;5060014;28;20816;-73
2022/04/05 01:12:15;;;;;;;5.83;4.87;;;11.20;45.80;;;-142.21;56.06;112049.66;5052232;28;20574;-73
2022/04/05 01:14:43;;;;;;;7.43;4.93;;;11.20;45.80;;;-142.21;56.61;112049.66;5065503;28;20449;-73
2022/04/05 01:17:10;;;;;;;4.97;4.47;;;11.20;45.90;;;-142.21;56.96;112049.66;5059066;28;20448;-73
2022/04/05 01:19:37;;;;;;;7.20;5.03;;;11.20;46.60;;;-142.21;57.31;112049.66;5060318;28;20789;-73
2022/04/05 01:22:04;;;;;;;5.37;4.33;;;11.20;46.20;;;-142.21;57.72;112049.66;5070112;28;20841;-74
2022/04/05 01:24:34;;;;;;;7.50;5.30;;;11.10;46.10;;;-142.21;58.25;112049.66;5053366;28;20938;-73
2022/04/05 01:27:06;;;;;;;5.77;4.20;;;11.20;46.30;;;-142.21;58.63;112049.66;5052042;28;20528;-73
2022/04/05 01:29:34;;;;;;;4.87;3.97;;;11.20;46.50;;;-142.21;58.95;112049.66;5052290;28;20439;-73
2022/04/05 01:32:05;;;;;;;5.60;4.30;;;11.10;46.50;;;-142.21;59.06;112049.66;5059992;28;20448;-73
2022/04/05 01:34:34;;;;;;;6.67;4.37;;;11.10;46.50;;;-142.21;59.16;112049.66;5069501;28;20447;-73
2022/04/05 01:37:04;;;;;;;4.87;4.37;;;11.20;46.70;;;-142.21;59.71;112049.66;5067371;28;20431;-73
2022/04/05 01:39:36;;;;;;;6.07;4.63;;;11.20;46.80;;;-142.21;60.48;112049.66;5065183;28;20790;-73
2022/04/05 01:42:07;;;;;;;5.93;4.77;;;11.20;46.90;;;-142.21;61.39;112049.66;5055327;28;20494;-73
2022/04/05 01:44:36;;;;;;;5.10;3.93;;;11.20;47.20;;;-142.21;62.09;112049.66;5054572;28;20445;-73
2022/04/05 01:47:07;;;;;;;5.13;4.33;;;11.10;47.30;;;-142.21;62.90;112049.66;5060875;28;20469;-73
2022/04/05 01:49:34;;;;;;;5.20;4.43;;;11.10;47.40;;;-142.21;63.67;112049.66;5064436;28;20441;-74
2022/04/05 01:52:02;;;;;;;6.90;4.73;;;11.10;47.30;;;-142.21;63.39;112049.66;5056380;28;20452;-73
2022/04/05 01:54:29;;;;;;;5.87;4.40;;;11.10;47.60;;;-142.21;64.06;112049.66;5054786;28;20445;-73
2022/04/05 01:56:57;;;;;;;5.47;4.17;;;11.10;47.70;;;-142.21;63.88;112049.66;5066673;28;20546;-74
2022/04/05 01:59:27;;;;;;;5.70;4.97;;;11.00;48.20;;;-142.21;64.59;112049.66;5065724;28;20444;-73
2022/04/05 02:01:55;;;;;;;5.70;4.50;;;10.90;47.90;;;-142.21;63.88;112049.66;5053909;28;20486;-73
2022/04/05 02:04:23;;;;;;;5.57;4.70;;;10.90;47.90;;;-142.21;64.19;112049.66;5054787;28;20452;-73
2022/04/05 02:06:51;;;;;;;5.50;4.73;;;10.90;48.00;;;-142.21;64.22;112049.66;5054692;28;20951;-74
2022/04/05 02:09:18;;;;;;;6.33;4.60;;;11.00;47.90;;;-142.21;63.82;112049.66;5066388;28;20966;-73
2022/04/05 02:11:48;;;;;;;5.70;5.10;;;10.90;48.00;;;-142.21;64.29;112049.66;5070340;28;21020;-73
2022/04/05 02:14:17;;;;;;;6.90;4.57;;;11.00;47.90;;;-142.21;63.96;112049.66;5054679;28;20541;-74
2022/04/05 02:16:44;;;;;;;5.87;4.20;;;11.00;48.00;;;-142.21;63.81;112049.66;5055937;28;20452;-73
2022/04/05 02:19:12;;;;;;;5.70;4.43;;;11.00;48.10;;;-142.21;62.88;112049.66;5060716;28;20451;-73
2022/04/05 02:21:39;;;;;;;5.60;4.97;;;11.10;47.80;;;-142.21;62.37;112049.66;5073193;28;20436;-73
2022/04/05 02:24:06;;;;;;;5.00;4.50;;;11.10;47.70;;;-142.21;62.27;112049.66;5058094;28;20523;-73
2022/04/05 02:26:34;;;;;;;5.87;3.63;;;11.10;47.70;;;-142.21;62.90;112049.66;5055575;28;20447;-74
2022/04/05 02:29:01;;;;;;;8.07;4.87;;;11.10;47.80;;;-142.21;64.47;112049.66;5051298;28;20542;-73
2022/04/05 02:31:29;;;;;;;4.97;4.47;;;11.10;48.20;;;-142.21;64.39;112049.66;5047580;28;20448;-73
2022/04/05 02:33:56;;;;;;;8.07;4.57;;;11.10;48.20;;;-142.21;65.68;112049.66;5064470;28;20444;-73
2022/04/05 02:36:23;;;;;;;4.80;4.27;;;11.00;48.50;;;-142.21;65.69;112049.66;5068538;28;20445;-73
2022/04/05 02:38:51;;;;;;;6.77;4.90;;;11.10;48.70;;;-142.21;66.86;112049.66;5072225;28;20450;-73
2022/04/05 02:41:18;;;;;;;5.63;4.27;;;11.00;48.80;;;-142.21;67.47;112049.66;5072265;28;20459;-73
2022/04/05 02:43:45;;;;;;;6.33;4.50;;;11.00;48.90;;;-142.21;66.78;112049.66;5063275;28;20523;-73
2022/04/05 02:46:12;;;;;;;6.13;4.70;;;11.10;48.90;;;-142.21;67.66;112049.66;5056959;28;20470;-73
2022/04/05 02:48:43;;;;;;;5.87;4.70;;;11.00;48.80;;;-142.21;67.99;112049.66;5067470;28;20487;-73
2022/04/05 02:51:12;;;;;;;5.47;4.50;;;11.10;48.90;;;-142.21;69.35;112049.66;5056288;28;20432;-73
2022/04/05 02:53:39;;;;;;;6.57;4.63;;;11.00;48.90;;;-142.21;69.00;112049.66;5071346;28;20785;-73
2022/04/05 02:56:08;;;;;;;4.97;4.47;;;11.00;48.90;;;-142.21;70.52;112049.66;5072086;28;20967;-73
2022/04/05 02:58:35;;;;;;;5.93;4.67;;;11.00;49.40;;;-142.21;72.81;112049.66;5064224;28;20765;-73
2022/04/05 03:01:04;;;;;;;5.67;4.73;;;11.00;49.90;;;-142.21;74.05;112049.66;5053543;28;20544;-73
2022/04/05 03:03:32;;;;;;;6.97;4.33;;;10.90;50.10;;;-142.21;77.72;112049.66;5053363;28;20484;-73
2022/04/05 03:06:01;;;;;;;5.80;4.70;;;10.80;51.10;;;-142.21;76.38;112049.66;5069606;28;20452;-73
2022/04/05 03:08:28;;;;;;;5.07;4.40;;;10.80;51.00;;;-142.21;76.17;112049.66;5057812;28;20459;-73
2022/04/05 03:10:55;;;;;;;7.33;5.13;;;10.80;50.80;;;-142.21;75.06;112049.66;5054204;28;20829;-73
2022/04/05 03:13:23;;;;;;;4.97;4.40;;;10.80;50.60;;;-142.21;76.12;112049.66;5072864;28;20518;-73
2022/04/05 03:15:50;;;;;;;6.30;4.90;;;10.80;50.80;;;-142.21;76.60;112049.66;5062586;28;20527;-74
2022/04/05 03:18:17;;;;;;;9.03;6.80;;;10.70;50.70;;;-142.21;76.61;112049.66;5055298;28;20452;-73
2022/04/05 03:20:45;;;;;;;5.50;4.87;;;10.70;51.70;;;-142.21;77.49;112049.66;5072682;28;20448;-73
2022/04/05 03:23:13;;;;;;;4.70;4.13;;;10.70;51.20;;;-142.21;78.99;112049.66;5065940;28;20487;-74
2022/04/05 03:25:41;;;;;;;4.90;4.40;;;10.70;51.40;;;-142.21;79.18;112049.66;5062355;28;20510;-73
2022/04/05 03:28:08;;;;;;;5.90;5.03;;;10.60;51.60;;;-142.21;80.98;112049.66;5021125;28;20483;-73
2022/04/05 03:30:35;;;;;;;5.57;4.50;;;10.60;51.90;;;-142.21;82.08;112049.66;5054073;28;20456;-73
2022/04/05 03:33:02;;;;;;;5.80;4.70;;;10.50;52.00;;;-142.21;83.66;112049.66;5065311;28;20788;-73
2022/04/05 03:35:30;;;;;;;6.10;4.57;;;10.50;52.60;;;-142.21;87.42;112049.66;5058850;28;20450;-74
2022/04/05 03:37:57;;;;;;;6.00;4.63;;;10.50;53.60;;;-142.21;90.08;112049.66;5062321;28;20543;-72
2022/04/05 03:40:26;;;;;;;5.27;4.50;;;10.40;54.20;;;-142.21;91.25;112049.66;5048413;28;20470;-72
2022/04/05 03:42:53;;;;;;;7.50;5.03;;;10.40;54.90;;;-142.21;94.36;112049.66;5051645;28;20543;-73
2022/04/05 03:45:21;;;;;;;5.40;4.87;;;10.40;54.80;;;-142.21;95.04;112049.66;5045838;28;20531;-73
2022/04/05 03:47:48;;;;;;;5.50;5.00;;;10.40;55.80;;;-142.21;96.42;112049.66;5053742;28;20453;-72
2022/04/05 03:50:17;;;;;;;9.53;5.13;;;10.30;55.90;;;-142.21;97.39;112049.66;5052175;28;20436;-73
2022/04/05 03:52:45;;;;;;;5.60;4.93;;;10.30;56.40;;;-142.21;97.49;112049.66;5054297;28;20532;-73
2022/04/05 03:55:12;;;;;;;5.77;4.77;;;10.20;56.90;;;-142.21;98.35;112049.66;5053297;28;20448;-73
2022/04/05 03:57:41;;;;;;;5.30;4.80;;;10.20;56.80;;;-142.21;98.93;112049.66;5053715;28;20440;-73
2022/04/05 04:00:09;;;;;;;6.87;5.00;;;10.20;57.40;;;-142.21;100.00;112049.66;5037693;28;20459;-73
2022/04/05 04:02:38;;;;;;;7.13;5.47;;;10.20;58.40;;;-142.21;100.00;112049.66;5066247;28;20484;-73
2022/04/05 04:05:07;;;;;;;5.60;4.83;;;10.20;58.10;;;-142.21;100.00;112049.66;5052973;28;20467;-73
2022/04/05 04:07:39;;;;;;;7.03;4.97;;;10.20;58.40;;;-142.21;100.00;112049.66;5051952;28;20778;-73
2022/04/05 04:10:08;;;;;;;5.87;4.97;;;10.20;58.50;;;-142.21;100.00;112049.66;5068236;28;20447;-73
2022/04/05 04:12:35;;;;;;;7.13;5.47;;;10.10;58.50;;;-142.21;100.00;112049.66;5055292;28;20479;-73
2022/04/05 04:15:05;;;;;;;7.17;5.63;;;10.00;59.40;;;-142.21;100.00;112049.66;5072054;28;20448;-73
2022/04/05 04:17:32;;;;;;;7.97;5.50;;;9.90;60.40;;;-142.21;100.00;112049.66;5070182;28;20448;-73
2022/04/05 04:19:59;;;;;;;6.23;5.03;;;9.90;60.80;;;-142.21;100.00;112049.66;5056420;28;20455;-73
2022/04/05 04:22:27;;;;;;;8.90;6.03;;;9.90;61.00;;;-142.21;100.00;112049.66;5072096;28;21002;-73
2022/04/05 04:24:56;;;;;;;7.57;5.47;;;9.80;61.30;;;-142.21;100.00;112049.66;5070179;28;20455;-73
2022/04/05 04:27:23;;;;;;;6.87;5.63;;;9.80;61.60;;;-142.21;100.00;112049.66;5060615;28;20445;-73
2022/04/05 04:29:50;;;;;;;7.73;5.57;;;9.70;61.60;;;-142.21;100.00;112049.66;5055366;28;20510;-73
2022/04/05 04:32:19;;;;;;;9.03;5.33;;;9.80;61.20;;;-142.21;100.00;112049.66;5072279;28;20427;-73
2022/04/05 04:34:46;;;;;;;8.97;5.30;;;9.80;61.30;;;-142.21;100.00;112049.66;5066978;28;20447;-73
2022/04/05 04:37:14;;;;;;;5.87;5.07;;;9.80;61.30;;;-142.21;100.00;112049.66;5056948;28;20789;-74
2022/04/05 04:39:41;;;;;;;6.97;5.63;;;9.70;61.90;;;-142.21;100.00;112049.66;5061741;28;20455;-73
2022/04/05 04:42:09;;;;;;;6.43;5.63;;;9.80;61.90;;;-142.21;100.00;112049.66;5018636;28;20819;-73
2022/04/05 04:44:36;;;;;;;8.37;5.43;;;9.80;62.10;;;-142.21;100.00;112049.66;5052036;28;21141;-74
2022/04/05 04:47:04;;;;;;;8.93;5.40;;;9.70;61.50;;;-142.21;100.00;112049.66;5054880;28;20474;-73
2022/04/05 04:49:33;;;;;;;7.93;5.73;;;9.70;62.30;;;-142.21;100.00;112049.66;5058364;28;20543;-73
2022/04/05 04:52:00;;;;;;;6.20;5.23;;;9.70;61.70;;;-142.21;100.00;112049.66;5045268;28;20795;-74
2022/04/05 04:54:27;;;;;;;6.33;5.23;;;9.80;61.60;;;-142.21;100.00;112049.66;5042202;28;20444;-73
2022/04/05 04:56:54;;;;;;;7.03;5.67;;;9.80;61.80;;;-142.21;100.00;112049.66;5039989;28;20999;-73
2022/04/05 04:59:21;;;;;;;6.77;6.07;;;9.70;61.90;;;-142.21;100.00;112049.66;5059046;28;20526;-73
2022/04/05 05:01:48;;;;;;;7.03;5.60;;;9.70;61.70;;;-142.21;100.00;112049.66;5055375;28;20440;-73
2022/04/05 05:04:17;;;;;;;5.80;5.20;;;9.70;61.50;;;-142.21;100.00;112049.66;5054321;28;20487;-74
2022/04/05 05:06:46;;;;;;;8.53;5.37;;;9.70;61.80;;;-142.21;100.00;112049.66;5052161;28;20446;-74
2022/04/05 05:09:13;;;;;;;7.23;5.53;;;9.60;61.90;;;-142.21;100.00;112049.66;5054000;28;20883;-73
2022/04/05 05:11:40;;;;;;;7.00;5.60;;;9.70;62.20;;;-142.21;100.00;112049.66;5071616;28;20479;-73
2022/04/05 05:14:07;;;;;;;7.53;5.83;;;9.70;62.70;;;-142.21;100.00;112049.66;5055482;28;20539;-74
2022/04/05 05:16:35;;;;;;;7.07;6.03;;;9.70;61.60;;;-142.21;100.00;112049.66;5056303;28;20520;-73
2022/04/05 05:19:02;;;;;;;6.80;4.73;;;9.70;61.20;;;-142.21;100.00;112049.66;5067285;28;20447;-73
2022/04/05 05:21:29;;;;;;;7.37;5.83;;;9.60;61.40;;;-142.21;100.00;112049.66;5064590;28;20476;-73
2022/04/05 05:23:58;;;;;;;7.27;5.63;;;9.60;61.30;;;-142.21;100.00;112049.66;5052705;28;20479;-73
2022/04/05 05:26:25;;;;;;;7.47;5.57;;;9.70;61.20;;;-142.21;100.00;112049.66;5034830;28;20539;-73
2022/04/05 05:28:52;;;;;;;6.20;5.60;;;9.70;61.00;;;-142.21;100.00;112049.66;5036983;28;20872;-73
2022/04/05 05:31:19;;;;;;;8.57;5.43;;;9.80;61.00;;;-142.21;100.00;112049.66;5038831;28;20449;-73
2022/04/05 05:33:46;;;;;;;6.33;5.33;;;9.80;60.50;;;-142.21;100.00;112049.66;5035976;28;20528;-73
2022/04/05 05:36:14;;;;;;;6.37;5.77;;;9.70;60.20;;;-142.21;100.00;112049.66;5035685;28;20452;-73
2022/04/05 05:38:41;;;;;;;8.43;5.53;;;9.70;60.70;;;-142.21;100.00;112049.66;5049125;28;20449;-73
2022/04/05 05:41:09;;;;;;;6.70;5.30;;;9.70;60.50;;;-142.21;100.00;112049.66;5063205;28;20455;-72
2022/04/05 05:43:38;;;;;;;7.33;5.37;;;9.60;60.20;;;-142.21;100.00;112049.66;5054659;28;20571;-73
2022/04/05 05:46:08;;;;;;;7.17;5.43;;;9.60;60.70;;;-142.21;100.00;112049.66;5046654;28;20469;-72
2022/04/05 05:48:35;;;;;;;6.67;5.03;;;9.60;60.70;;;-142.21;100.00;112049.66;5049204;28;20463;-72
2022/04/05 05:51:03;;;;;;;7.60;5.77;;;9.60;60.90;;;-142.21;100.00;112049.66;5058214;28;20439;-73
2022/04/05 05:53:30;;;;;;;6.30;5.53;;;9.70;60.70;;;-142.21;100.00;112049.66;5059330;28;20447;-72
2022/04/05 05:55:57;;;;;;;7.83;5.53;;;9.60;60.30;;;-142.21;100.00;112049.66;5056278;28;20460;-72
2022/04/05 05:58:29;;;;;;;8.23;6.40;;;9.60;60.40;;;-142.21;100.00;112049.66;5053946;28;20547;-72
2022/04/05 06:00:56;;;;;;;7.63;5.73;;;9.60;60.70;;;-142.21;100.00;112049.66;5055520;28;20757;-72
2022/04/05 06:03:23;;;;;;;7.13;6.03;;;9.70;60.50;;;-142.21;100.00;112049.66;5056808;28;20995;-73
2022/04/05 06:05:50;;;;;;;6.40;5.37;;;9.70;60.30;;;-142.21;100.00;112049.66;5053747;28;20543;-72
2022/04/05 06:08:18;;;;;;;7.90;5.57;;;9.80;61.00;;;-142.21;100.00;112049.66;5054136;28;20484;-74
2022/04/05 06:10:45;;;;;;;7.97;5.23;;;9.70;60.20;;;-142.21;100.00;112049.66;5054423;28;20509;-72
2022/04/05 06:13:12;;;;;;;7.37;4.93;;;9.70;60.70;;;-142.21;100.00;112049.66;5039937;28;20836;-71
2022/04/05 06:15:43;;;;;;;6.70;5.10;;;9.70;60.80;;;-142.21;100.00;112049.66;5034632;28;20452;-73
2022/04/05 06:18:10;;;;;;;7.43;5.37;;;9.70;60.50;;;-142.21;100.00;112049.66;5060383;28;20924;-73
2022/04/05 06:20:38;;;;;;;6.00;5.20;;;9.70;60.90;;;-142.21;100.00;112049.66;5059078;28;20487;-75
2022/04/05 06:23:06;;;;;;;6.90;5.40;;;9.70;61.10;;;-142.21;100.00;112049.66;5053280;28;20484;-74
2022/04/05 06:25:36;;;;;;;7.60;5.60;;;9.70;61.30;;;-142.21;100.00;112049.66;5064900;28;20499;-74
2022/04/05 06:28:07;;;;;;;8.63;5.27;;;9.70;60.80;;;-142.21;100.00;112049.66;5063650;28;20480;-74
2022/04/05 06:30:37;;;;;;;6.77;5.93;;;9.70;61.30;;;-142.21;100.00;112049.66;5034377;28;20548;-74
2022/04/05 06:33:09;;;;;;;7.10;5.63;;;9.80;61.20;;;-142.21;100.00;112049.66;5034009;28;20430;-74
2022/04/05 06:35:37;;;;;;;7.93;5.80;;;9.80;60.80;;;-142.21;100.00;112049.66;5034632;28;20433;-74
2022/04/05 06:38:04;;;;;;;6.70;5.87;;;9.80;60.80;;;-142.21;100.00;112049.66;5034354;28;20507;-74
2022/04/05 06:40:32;;;;;;;8.93;5.60;;;9.80;60.70;;;-142.21;100.00;112049.66;5048815;28;20448;-75
2022/04/05 06:42:59;;;;;;;6.87;5.50;;;9.80;60.60;;;-142.21;100.00;112049.66;5058059;28;20952;-75
2022/04/05 06:45:28;;;;;;;7.40;5.70;;;9.90;60.30;;;-142.21;100.00;112049.66;5061755;28;20468;-75
2022/04/05 06:47:56;;;;;;;8.20;5.83;;;9.80;60.40;;;-142.21;100.00;112049.66;5058667;28;20974;-75
2022/04/05 06:50:25;;;;;;;6.80;5.20;;;9.90;60.50;;;-142.21;100.00;112049.66;5053465;28;20448;-74
2022/04/05 06:52:55;;;;;;;7.67;5.37;;;9.90;60.40;;;-142.21;100.00;112049.66;5069853;28;20455;-74
2022/04/05 06:55:22;;;;;;;6.93;5.50;;;9.90;60.30;;;-142.21;100.00;112049.66;5074050;28;20500;-75
2022/04/05 06:57:49;;;;;;;7.50;6.33;;;10.00;59.30;;;-142.21;100.00;112049.66;5073082;28;20498;-74
2022/04/05 07:00:19;;;;;;;7.27;5.90;;;10.00;59.40;;;-142.21;98.79;112049.66;5073147;28;20858;-75
2022/04/05 07:02:47;;;;;;;8.87;5.43;;;9.90;59.80;;;-142.21;99.92;112049.66;5068440;28;20444;-74
2022/04/05 07:05:15;;;;;;;6.57;5.47;;;10.00;59.10;;;-142.21;99.37;112049.66;5052819;28;20491;-74
2022/04/05 07:07:43;;;;;;;6.27;5.17;;;10.10;59.20;;;-142.21;97.93;112049.66;5052569;28;20529;-74
2022/04/05 07:10:14;;;;;;;6.73;5.40;;;10.10;58.60;;;-142.21;97.85;112049.66;5053188;28;20850;-74
2022/04/05 07:12:42;;;;;;;7.90;6.03;;;10.10;58.50;;;-142.21;97.66;112049.66;5052066;28;20821;-75
2022/04/05 07:15:10;;;;;;;8.43;5.60;;;10.20;58.20;;;-142.21;98.02;112049.66;5052909;28;20440;-75
2022/04/05 07:17:39;;;;;;;9.07;5.53;;;10.30;58.30;;;-142.21;98.36;112049.66;5052840;28;20870;-75
2022/04/05 07:20:09;;;;;;;7.50;5.33;;;10.30;58.20;;;-142.21;98.08;112049.66;5052695;28;20535;-75
2022/04/05 07:22:37;;;;;;;5.77;4.90;;;10.30;58.00;;;-142.21;98.55;112049.66;5052881;28;20429;-75
2022/04/05 07:25:06;;;;;;;8.07;5.40;;;10.40;58.10;;;-142.21;98.25;112049.66;5052225;28;20912;-75
2022/04/05 07:27:33;;;;;;;6.63;5.47;;;10.40;58.10;;;-142.21;99.42;112049.66;5052540;28;20446;-76
2022/04/05 07:30:01;;;;;;;7.00;5.67;;;10.40;58.20;;;-142.21;99.82;112049.66;5051733;28;20452;-75
2022/04/05 07:32:35;;;;;;;6.10;5.40;;;10.40;58.50;;;-142.21;99.25;112049.66;5052351;28;20527;-74
2022/04/05 07:35:02;;;;;;;7.67;5.53;;;10.40;58.30;;;-142.21;100.00;112049.66;5051366;28;20827;-75
2022/04/05 07:37:30;;;;;;;9.37;5.87;;;10.30;58.90;;;-142.21;100.00;112049.66;5052130;28;20480;-75
2022/04/05 07:39:58;;;;;;;8.23;6.20;;;10.30;59.00;;;-142.21;100.00;112049.66;5051687;28;20452;-74
2022/04/05 07:42:29;;;;;;;7.53;5.53;;;10.30;59.20;;;-142.21;100.00;112049.66;5053555;28;20456;-74
2022/04/05 07:44:56;;;;;;;6.17;5.20;;;10.30;59.10;;;-142.21;100.00;112049.66;5052387;28;20925;-74
2022/04/05 07:47:24;;;;;;;7.33;5.70;;;10.40;58.90;;;-142.21;100.00;112049.66;5010212;28;20540;-75
2022/04/05 07:49:51;;;;;;;9.67;5.53;;;10.50;59.20;;;-142.21;100.00;112049.66;5032439;28;20852;-75
2022/04/05 07:52:18;;;;;;;5.73;5.13;;;10.40;58.90;;;-142.21;100.00;112049.66;5041188;28;20830;-74
2022/04/05 07:54:45;;;;;;;7.10;5.03;;;10.50;59.00;;;-142.21;100.00;112049.66;5064139;28;20526;-75
2022/04/05 07:57:13;;;;;;;7.17;5.47;;;10.50;59.20;;;-142.21;99.73;112049.66;5071536;28;20482;-76
2022/04/05 07:59:42;;;;;;;5.87;4.90;;;10.60;58.60;;;-142.21;98.83;112049.66;5072069;28;20448;-74
2022/04/05 08:02:10;;;;;;;10.07;5.53;;;10.50;58.30;;;-142.21;99.18;112049.66;5071701;28;20448;-74
2022/04/05 08:04:37;;;;;;;7.60;5.20;;;10.60;58.50;;;-142.21;99.11;112049.66;5052779;28;20992;-75
2022/04/05 08:07:06;;;;;;;7.13;5.23;;;10.50;58.10;;;-142.21;100.00;112049.66;5052064;28;20444;-75
2022/04/05 08:09:33;;;;;;;6.40;5.40;;;10.60;58.40;;;-142.21;99.39;112049.66;5051233;28;20948;-75
2022/04/05 08:12:00;;;;;;;6.37;5.17;;;10.60;58.20;;;-142.21;98.43;112049.66;5051595;28;20533;-74
2022/04/05 08:14:29;;;;;;;7.03;5.30;;;10.60;57.90;;;-142.21;97.75;112049.66;5051250;28;20468;-74
2022/04/05 08:17:01;;;;;;;8.03;4.97;;;10.70;58.00;;;-142.21;97.21;112049.66;5052104;28;20456;-75
2022/04/05 08:19:29;;;;;;;6.03;5.17;;;10.70;57.60;;;-142.21;98.23;112049.66;5051485;28;20455;-74
2022/04/05 08:21:56;;;;;;;6.53;5.20;;;10.80;57.80;;;-142.21;98.20;112049.66;5051896;28;20476;-74
2022/04/05 08:24:23;;;;;;;7.07;4.83;;;10.80;57.90;;;-142.21;97.29;112049.66;5051318;28;20562;-74
2022/04/05 08:26:51;;;;;;;7.07;5.33;;;10.80;57.40;;;-142.21;97.15;112049.66;5051816;28;20482;-74
2022/04/05 08:29:18;;;;;;;5.77;5.00;;;10.90;57.30;;;-142.21;97.16;112049.66;5051295;28;20543;-75
2022/04/05 08:31:45;;;;;;;7.17;5.30;;;10.90;57.20;;;-142.21;96.18;112049.66;5016243;28;20467;-75
2022/04/05 08:34:14;;;;;;;6.20;4.90;;;10.90;57.30;;;-142.21;96.00;112049.66;5051622;28;20444;-75
2022/04/05 08:36:41;;;;;;;7.37;5.30;;;11.00;57.40;;;-142.21;95.76;112049.66;5051024;28;21015;-74
2022/04/05 08:39:08;;;;;;;5.90;4.93;;;10.90;56.90;;;-142.21;95.83;112049.66;5051902;28;20448;-74
2022/04/05 08:41:38;;;;;;;7.63;5.40;;;11.00;56.90;;;-142.21;94.87;112049.66;5050929;28;20456;-74
2022/04/05 08:44:08;;;;;;;6.60;5.13;;;11.00;56.70;;;-142.21;95.78;112049.66;5051529;28;20584;-75
2022/04/05 08:46:38;;;;;;;8.20;5.37;;;11.00;57.00;;;-142.21;94.70;112049.66;5054625;28;20468;-75
2022/04/05 08:49:05;;;;;;;8.27;5.20;;;11.00;56.60;;;-142.21;95.76;112049.66;5035470;28;20422;-75
2022/04/05 08:51:34;;;;;;;6.40;4.53;;;11.10;56.70;;;-142.21;94.01;112049.66;5035901;28;20848;-75
2022/04/05 08:54:02;;;;;;;7.50;5.80;;;11.10;56.30;;;-142.21;94.78;112049.66;5035010;28;20441;-74
2022/04/05 08:56:30;;;;;;;5.93;4.63;;;11.10;56.90;;;-142.21;94.78;112049.66;5035691;28;20449;-74
2022/04/05 08:58:58;;;;;;;7.60;4.97;;;11.10;56.30;;;-142.21;94.41;112049.66;5057359;28;20443;-74
2022/04/05 09:01:29;;;;;;;6.13;5.03;;;11.10;56.00;;;-142.21;94.12;112049.66;5057928;28;20440;-74
2022/04/05 09:03:57;;;;;;;6.73;5.50;;;11.20;55.90;;;-142.21;93.67;112049.66;5054720;28;20471;-75
2022/04/05 09:06:29;;;;;;;7.07;4.83;;;11.10;55.70;;;-142.21;93.54;112049.66;5055172;28;20479;-74
2022/04/05 09:09:09;;;;;;;6.43;4.87;;;11.10;56.00;;;-142.21;92.78;112049.66;5054847;28;20495;-74
2022/04/05 09:11:42;;;;;;;7.27;4.73;;;11.10;55.80;;;-142.21;93.13;112049.66;5054944;28;20578;-75
2022/04/05 09:14:10;;;;;;;6.23;4.90;;;11.10;55.90;;;-142.21;93.62;112049.66;5054355;28;20723;-75
2022/04/05 09:16:37;;;;;;;7.70;5.33;;;11.20;55.90;;;-142.21;94.42;112049.66;5054987;28;20535;-75
2022/04/05 09:19:12;;;;;;;9.13;5.43;;;11.30;56.00;;;-142.21;94.73;112049.66;5054298;28;20940;-75
2022/04/05 09:21:56;;;;;;;5.80;4.90;;;11.30;56.10;;;-142.21;94.27;112049.66;5055265;28;20442;-75
2022/04/05 09:24:34;;;;;;;6.80;5.33;;;11.30;55.90;;;-142.21;93.08;112049.66;5054774;28;20549;-75
2022/04/05 09:27:02;;;;;;;6.97;5.23;;;11.40;55.80;;;-142.21;93.60;112049.66;5054106;28;20428;-75
2022/04/05 09:29:39;;;;;;;7.03;5.17;;;11.40;55.90;;;-142.21;94.22;112049.66;5055124;28;20509;-74
2022/04/05 09:32:08;;;;;;;8.20;5.60;;;11.40;56.10;;;-142.21;93.43;112049.66;5054183;28;20519;-75
2022/04/05 09:34:50;;;;;;;6.43;5.23;;;11.50;55.90;;;-142.21;93.53;112049.66;5054614;28;20940;-75
2022/04/05 09:37:24;;;;;;;6.87;5.03;;;11.50;55.80;;;-142.21;92.97;112049.66;5054398;28;20432;-75
2022/04/05 09:39:55;;;;;;;7.87;5.50;;;11.60;55.60;;;-142.21;93.25;112049.66;5054538;28;20416;-74
2022/04/05 09:42:22;;;;;;;6.33;5.10;;;11.60;55.60;;;-142.21;93.64;112049.66;5054234;28;20812;-75
2022/04/05 09:44:49;;;;;;;6.53;4.77;;;11.60;55.60;;;-142.21;94.03;112049.66;5054720;28;20589;-75
2022/04/05 09:47:24;;;;;;;5.70;4.77;;;11.60;55.90;;;-142.21;95.26;112049.66;5053773;28;20543;-74
2022/04/05 09:49:53;;;;;;;6.97;5.33;;;11.70;56.00;;;-142.21;95.14;112049.66;5054479;28;20428;-75
2022/04/05 09:52:26;;;;;;;7.43;5.10;;;11.70;55.80;;;-142.21;94.16;112049.66;5053827;28;20448;-75
2022/04/05 09:54:56;;;;;;;6.13;4.80;;;11.80;55.70;;;-142.21;92.32;112049.66;5054601;28;20859;-75
2022/04/05 09:57:32;;;;;;;6.13;5.40;;;11.80;54.90;;;-142.21;91.91;112049.66;5052604;28;20472;-74
2022/04/05 10:00:12;;;;;;;7.37;4.73;;;11.80;55.00;;;-142.21;92.00;112049.66;5054181;28;20446;-75
2022/04/05 10:03:01;;;;;;;6.10;4.90;;;11.90;55.00;;;-142.21;92.03;112049.66;5053449;28;20462;-74
2022/04/05 10:05:30;;;;;;;6.03;5.10;;;11.90;55.00;;;-142.21;90.71;112049.66;5065977;28;20479;-75